createdAt,value
2022-09-28T12:24:00.787Z,36.9
2022-09-28T12:29:01.151Z,36.8
2022-09-28T12:34:01.499Z,36.8
2022-09-28T12:39:17.944Z,36.7
2022-09-28T12:44:36.015Z,36.7
2022-09-28T12:50:20.413Z,36.7
2022-09-28T12:55:27.652Z,36.7
2022-09-28T13:00:28.003Z,36.7
2022-09-28T13:05:28.376Z,36.6
2022-09-28T13:10:28.939Z,36.6
2022-09-28T13:15:29.561Z,36.6
2022-09-28T13:20:30.519Z,36.6
2022-09-28T13:25:30.961Z,36.5
2022-09-28T13:30:31.334Z,36.4
2022-09-28T13:35:31.756Z,36.4
2022-09-28T13:40:32.358Z,36.4
2022-09-28T13:45:32.763Z,36.4
2022-09-28T13:50:33.079Z,36.4
2022-09-28T13:55:33.415Z,36.3
2022-09-28T14:00:33.849Z,36.3
2022-09-28T14:05:34.167Z,36.3
2022-09-28T14:10:34.518Z,36.2
2022-09-28T14:15:34.877Z,36.2
2022-09-28T14:20:35.243Z,36.2
2022-09-28T14:25:35.562Z,36.2
2022-09-28T14:30:35.915Z,36.2
2022-09-28T14:35:36.221Z,36.1
2022-09-28T14:40:36.616Z,36.1
2022-09-28T14:45:36.998Z,36.1
2022-09-28T14:50:38.171Z,36.1
2022-09-28T14:55:38.462Z,36.1
2022-09-28T15:00:38.805Z,36
2022-09-28T15:05:39.181Z,36
2022-09-28T15:10:40.438Z,35.9
2022-09-28T15:15:40.823Z,35.9
2022-09-28T15:20:41.255Z,35.9
2022-09-28T15:25:41.593Z,35.9
2022-09-28T15:30:41.940Z,35.9
2022-09-28T15:35:42.241Z,35.9
2022-09-28T15:40:42.611Z,35.8
2022-09-28T15:45:42.953Z,35.8
2022-09-28T15:50:43.294Z,35.9
2022-09-28T15:55:43.644Z,38.1
2022-09-28T16:00:44.084Z,39.6
2022-09-28T16:05:44.512Z,40.7
2022-09-28T16:10:44.939Z,41.7
2022-09-28T16:15:45.674Z,42.7
2022-09-28T16:20:46.462Z,43.6
2022-09-28T16:25:46.981Z,44.4
2022-09-28T16:30:47.598Z,45.1
2022-09-28T16:35:48.286Z,45.9
2022-09-28T16:40:48.945Z,46.5
2022-09-28T16:45:49.596Z,46.8
2022-09-28T16:50:50.203Z,47.1
2022-09-28T16:55:50.880Z,47.4
2022-09-28T17:00:51.511Z,47.6
2022-09-28T17:05:52.130Z,47.7
2022-09-28T17:11:20.375Z,47.7
2022-09-28T17:16:32.483Z,47.9
2022-09-28T17:21:43.259Z,48
2022-09-28T17:26:44.084Z,47.9
2022-09-28T17:31:44.731Z,47.8
2022-09-28T17:36:45.350Z,46
2022-09-28T17:41:45.985Z,45.6
2022-09-28T17:46:46.718Z,45.3
2022-09-28T17:51:47.354Z,45.1
2022-09-28T17:56:47.951Z,45
2022-09-28T18:01:48.657Z,44.8
2022-09-28T18:06:49.395Z,44.7
2022-09-28T18:11:49.987Z,44.6
2022-09-28T18:16:50.529Z,44.4
2022-09-28T18:21:51.086Z,44.2
2022-09-28T18:26:52.526Z,44.1
2022-09-28T18:31:53.062Z,44
2022-09-28T18:36:53.631Z,43.9
2022-09-28T18:41:54.170Z,43.7
2022-09-28T18:46:54.732Z,43.6
2022-09-28T18:51:55.291Z,43.5
2022-09-28T18:56:55.821Z,43.3
2022-09-28T19:01:56.410Z,42.8
2022-09-28T19:06:57.230Z,42.6
2022-09-28T19:11:57.737Z,42.4
2022-09-28T19:16:58.237Z,42.4
2022-09-28T19:21:58.818Z,42.2
2022-09-28T19:26:59.458Z,42.1
2022-09-28T19:31:59.922Z,42
2022-09-28T19:37:00.374Z,41.9
2022-09-28T19:42:00.820Z,41.8
2022-09-28T19:47:01.233Z,41.7
2022-09-28T19:52:12.505Z,41.6
2022-09-28T19:57:13.915Z,41.5
2022-09-28T20:02:14.373Z,41.4
2022-09-28T20:07:14.823Z,41.2
2022-09-28T20:12:15.261Z,41
2022-09-28T20:17:15.750Z,40.9
2022-09-28T20:22:16.207Z,40.8
2022-09-28T20:27:16.646Z,40.7
2022-09-28T20:32:17.079Z,40.6
2022-09-28T20:37:17.563Z,40.5
2022-09-28T20:42:18.041Z,40.4
2022-09-28T20:47:18.465Z,40.3
2022-09-28T20:52:18.890Z,40.2
2022-09-28T20:57:19.323Z,40.2
2022-09-28T21:02:19.753Z,40.1
2022-09-28T21:07:20.196Z,40
2022-09-28T21:12:20.600Z,39.9
2022-09-28T21:17:21.074Z,39.9
2022-09-28T21:22:21.486Z,39.8
2022-09-28T21:27:21.891Z,39.7
2022-09-28T21:32:22.326Z,39.7
2022-09-28T21:37:22.842Z,39.6
2022-09-28T21:42:23.605Z,39.5
2022-09-28T21:47:24.250Z,39.4
2022-09-28T21:52:24.687Z,39.4
2022-09-28T21:57:25.087Z,39.3
2022-09-28T22:02:25.544Z,39.2
2022-09-28T22:07:26.003Z,39.2
2022-09-28T22:12:26.467Z,39.1
2022-09-28T22:17:26.866Z,39.1
2022-09-28T22:22:29.237Z,39
2022-09-28T22:27:29.812Z,38.9
2022-09-28T22:32:30.226Z,38.9
2022-09-28T22:37:30.626Z,38.8
2022-09-28T22:42:31.247Z,38.7
2022-09-28T22:47:31.677Z,38.7
2022-09-28T22:52:32.115Z,38.6
2022-09-28T22:57:32.512Z,38.6
2022-09-28T23:02:33.045Z,38.6
2022-09-28T23:07:33.575Z,38.5
2022-09-28T23:12:33.991Z,38.4
2022-09-28T23:17:34.396Z,38.4
2022-09-28T23:22:34.800Z,38.3
2022-09-28T23:27:35.226Z,38.2
2022-09-28T23:32:35.627Z,38.2
2022-09-28T23:37:36.019Z,38.2
2022-09-28T23:42:36.428Z,38.1
2022-09-28T23:47:36.810Z,38.1
2022-09-28T23:52:37.166Z,38
2022-09-28T23:57:37.552Z,38
